If you wish to contribute or participate in the discussions about articles you are invited to join SKYbrary as a registered user

 Actions

Cazaux (BA 120) Air Base

From SKYbrary Wiki

LFBC
Airport
ICAO: LFBC
Summary
Name Cazaux (BA 120) Air Base
Region Europe
Territory France FR.gif
Location , Aquitaine
Serving Cazaux
Elevation 25.603 m
84 ft
84 ft25.603 m
Type medium airport
Coordinates 44° 32' 0.00" N, 1° 7' 30.00" W
Runways
Designator Length Width Surface ROPS
6/24 2408 m7,900.262 ft
45 m147.638 ft
ASP /


METAR
Observation LFBC 110800Z AUTO 32011KT 290V350 9999 -RA SCT011/// BKN020/// BKN036/// ///TCU 11/10 Q1017 TEMPO 28020G30KT 4000 RA BECMG BKN030
Station Cazaux
Date/Time 11 December 2019 08:00:00
Wind direction 320°
Wind speed 11 kts
Lowest cloud amount scattered clouds
Temperature 11°C
Dew point 10°C
Humidity 93%
QNH 1017 hPa
Weather condition light rain